Time;durP1;ratioP1;P1;durP2;ratioP2;P2;SDS_P1;SDS_P2;PMS_P1;PMS_P2;Temp;Humidity;BMP_temperature;BMP_pressure;BME280_temperature;BME280_humidity;BME280_pressure;Samples;Min_cycle;Max_cycle;Signal;HPM_P1;HPM_P2
2024/01/17 00:00:13;;;;;;;14.18;4.38;;;;;;;;;;4858688;29;20057;-80
2024/01/17 00:02:40;;;;;;;8.85;3.22;;;;;;;;;;4875560;29;20041;-80
2024/01/17 00:05:06;;;;;;;3.05;2.47;;;;;;;;;;4878265;29;20061;-80
2024/01/17 00:07:32;;;;;;;4.50;1.77;;;;;;;;;;4872083;29;20049;-80
2024/01/17 00:09:58;;;;;;;3.70;1.80;;;;;;;;;;4879099;29;20498;-81
2024/01/17 00:12:24;;;;;;;11.45;7.47;;;;;;;;;;4859844;29;20073;-81
2024/01/17 00:14:50;;;;;;;17.38;8.70;;;;;;;;;;4877236;29;20128;-81
2024/01/17 00:17:16;;;;;;;5.40;2.72;;;;;;;;;;4851411;29;20483;-81
2024/01/17 00:19:42;;;;;;;4.93;2.00;;;;;;;;;;4874062;29;20091;-81
2024/01/17 00:22:08;;;;;;;3.97;2.10;;;;;;;;;;4872054;29;20491;-81
2024/01/17 00:24:34;;;;;;;2.92;1.63;;;;;;;;;;4869276;29;20052;-81
2024/01/17 00:27:00;;;;;;;7.80;3.08;;;;;;;;;;4869865;29;20041;-81
2024/01/17 00:29:26;;;;;;;17.40;5.60;;;;;;;;;;4848493;29;20567;-81
2024/01/17 00:31:52;;;;;;;8.75;4.28;;;;;;;;;;4860323;29;20046;-81
2024/01/17 00:34:18;;;;;;;7.90;4.60;;;;;;;;;;4868542;29;20045;-81
2024/01/17 00:36:44;;;;;;;5.63;4.20;;;;;;;;;;4872406;29;20452;-81
2024/01/17 00:39:13;;;;;;;6.35;3.17;;;;;;;;;;4871778;29;20058;-81
2024/01/17 00:41:39;;;;;;;7.00;3.85;;;;;;;;;;4866511;29;20084;-81
2024/01/17 00:44:05;;;;;;;5.82;1.88;;;;;;;;;;4862388;29;20076;-80
2024/01/17 00:46:31;;;;;;;4.63;2.20;;;;;;;;;;4860067;29;20049;-80
2024/01/17 00:48:57;;;;;;;1.98;0.88;;;;;;;;;;4867875;29;20116;-80
2024/01/17 00:51:24;;;;;;;5.40;3.25;;;;;;;;;;4858867;29;20077;-81
2024/01/17 00:53:50;;;;;;;7.75;2.35;;;;;;;;;;4869895;29;20037;-80
2024/01/17 00:56:16;;;;;;;0.73;0.63;;;;;;;;;;4866427;29;20413;-80
2024/01/17 00:58:42;;;;;;;4.28;1.00;;;;;;;;;;4870669;29;20046;-80
2024/01/17 01:01:08;;;;;;;3.42;0.38;;;;;;;;;;4874110;29;20085;-80
2024/01/17 01:03:34;;;;;;;1.80;1.13;;;;;;;;;;4870239;29;20563;-80
2024/01/17 01:06:00;;;;;;;2.60;0.90;;;;;;;;;;4869841;29;20053;-80
2024/01/17 01:08:26;;;;;;;3.45;0.75;;;;;;;;;;4868961;29;20366;-80
2024/01/17 01:10:52;;;;;;;1.92;0.75;;;;;;;;;;4864099;29;20041;-81
2024/01/17 01:13:18;;;;;;;2.85;0.50;;;;;;;;;;4872184;29;20045;-80
2024/01/17 01:15:44;;;;;;;3.13;1.10;;;;;;;;;;4874990;29;20044;-80
2024/01/17 01:18:10;;;;;;;1.98;1.02;;;;;;;;;;4874756;29;20103;-80
2024/01/17 01:20:36;;;;;;;1.13;0.60;;;;;;;;;;4866218;29;20057;-80
2024/01/17 01:23:02;;;;;;;3.47;1.52;;;;;;;;;;4871967;29;20089;-81
2024/01/17 01:25:28;;;;;;;2.17;1.08;;;;;;;;;;4871982;29;20567;-80
2024/01/17 01:27:54;;;;;;;3.55;1.63;;;;;;;;;;4864312;29;20045;-80
2024/01/17 01:30:21;;;;;;;1.67;1.27;;;;;;;;;;4864818;29;20052;-80
2024/01/17 01:32:47;;;;;;;4.15;0.55;;;;;;;;;;4868556;29;20535;-80
2024/01/17 01:35:13;;;;;;;1.33;0.52;;;;;;;;;;4864281;29;20149;-80
2024/01/17 01:37:39;;;;;;;1.85;0.60;;;;;;;;;;4876528;29;20029;-80
2024/01/17 01:40:07;;;;;;;0.68;0.45;;;;;;;;;;4854824;29;20044;-80
2024/01/17 01:42:34;;;;;;;0.90;0.35;;;;;;;;;;4862302;29;20049;-80
2024/01/17 01:45:00;;;;;;;1.48;0.70;;;;;;;;;;4874526;29;20480;-80
2024/01/17 01:47:26;;;;;;;0.38;0.30;;;;;;;;;;4859879;29;20088;-80
2024/01/17 01:49:52;;;;;;;3.58;1.25;;;;;;;;;;4867815;29;20121;-80
2024/01/17 01:52:20;;;;;;;3.58;0.73;;;;;;;;;;4859800;29;20049;-80
2024/01/17 01:54:46;;;;;;;1.40;0.50;;;;;;;;;;4863687;29;20047;-80
2024/01/17 01:57:12;;;;;;;1.65;0.65;;;;;;;;;;4868702;29;20100;-80
2024/01/17 01:59:39;;;;;;;2.45;1.15;;;;;;;;;;4874002;29;20040;-80
2024/01/17 02:02:05;;;;;;;1.17;0.70;;;;;;;;;;4863205;29;20136;-80
2024/01/17 02:04:34;;;;;;;1.38;0.90;;;;;;;;;;4867175;29;20045;-80
2024/01/17 02:07:01;;;;;;;2.83;1.02;;;;;;;;;;4867716;29;20089;-80
2024/01/17 02:09:27;;;;;;;0.98;0.57;;;;;;;;;;4858246;29;20033;-80
2024/01/17 02:11:54;;;;;;;2.20;0.52;;;;;;;;;;4873695;29;20076;-80
2024/01/17 02:14:20;;;;;;;0.75;0.40;;;;;;;;;;4868212;29;20049;-80
2024/01/17 02:16:46;;;;;;;5.68;0.77;;;;;;;;;;4871561;29;20056;-80
2024/01/17 02:19:16;;;;;;;2.25;1.33;;;;;;;;;;4871955;29;20045;-81
2024/01/17 02:21:42;;;;;;;3.67;1.10;;;;;;;;;;4864485;29;20156;-80
2024/01/17 02:24:15;;;;;;;1.40;0.80;;;;;;;;;;4875984;29;20073;-80
2024/01/17 02:26:41;;;;;;;1.52;0.95;;;;;;;;;;4866410;29;20073;-80
2024/01/17 02:29:07;;;;;;;1.45;0.70;;;;;;;;;;4874045;29;20093;-80
2024/01/17 02:31:33;;;;;;;2.17;1.05;;;;;;;;;;4845933;29;20045;-80
2024/01/17 02:33:59;;;;;;;7.53;1.17;;;;;;;;;;4865816;29;20055;-80
2024/01/17 02:36:25;;;;;;;2.55;0.60;;;;;;;;;;4862068;29;20117;-80
2024/01/17 02:38:51;;;;;;;1.50;0.38;;;;;;;;;;4875888;29;20432;-81
2024/01/17 02:41:17;;;;;;;3.65;1.35;;;;;;;;;;4872641;29;20049;-80
2024/01/17 02:43:43;;;;;;;2.10;1.10;;;;;;;;;;4874123;29;20049;-80
2024/01/17 02:46:09;;;;;;;0.85;0.50;;;;;;;;;;4865353;29;20094;-80
2024/01/17 02:48:35;;;;;;;1.40;0.70;;;;;;;;;;4863199;29;20037;-80
2024/01/17 02:51:01;;;;;;;0.90;0.63;;;;;;;;;;4876689;29;20049;-81
2024/01/17 02:53:27;;;;;;;2.00;0.88;;;;;;;;;;4856464;29;20069;-81
2024/01/17 02:55:53;;;;;;;0.95;0.82;;;;;;;;;;4861533;29;20060;-80
2024/01/17 02:58:19;;;;;;;0.85;0.63;;;;;;;;;;4866095;29;20133;-80
2024/01/17 03:00:45;;;;;;;2.70;0.90;;;;;;;;;;4859485;29;20098;-80
2024/01/17 03:03:11;;;;;;;6.40;0.43;;;;;;;;;;4873168;29;20105;-80
2024/01/17 03:05:38;;;;;;;1.15;0.38;;;;;;;;;;4872457;29;20646;-80
2024/01/17 03:08:07;;;;;;;1.23;0.52;;;;;;;;;;4873893;29;20041;-80
2024/01/17 03:10:33;;;;;;;2.22;0.70;;;;;;;;;;4868621;29;20496;-80
2024/01/17 03:12:59;;;;;;;0.60;0.17;;;;;;;;;;4869340;29;20044;-80
2024/01/17 03:15:25;;;;;;;4.47;0.55;;;;;;;;;;4871452;29;20485;-80
2024/01/17 03:17:51;;;;;;;1.48;0.80;;;;;;;;;;4866219;29;20041;-80
2024/01/17 03:20:17;;;;;;;0.93;0.60;;;;;;;;;;4857521;29;20045;-80
2024/01/17 03:22:44;;;;;;;2.38;0.77;;;;;;;;;;4871849;29;20174;-80
2024/01/17 03:25:10;;;;;;;1.10;0.40;;;;;;;;;;4864161;29;20124;-80
2024/01/17 03:27:36;;;;;;;4.95;1.02;;;;;;;;;;4862727;29;20124;-80
2024/01/17 03:30:07;;;;;;;0.65;0.10;;;;;;;;;;4848988;29;20052;-80
2024/01/17 03:32:33;;;;;;;0.95;0.50;;;;;;;;;;4870907;29;20496;-80
2024/01/17 03:35:00;;;;;;;0.20;0.20;;;;;;;;;;4865619;29;20086;-80
2024/01/17 03:37:26;;;;;;;0.10;0.10;;;;;;;;;;4865975;29;20045;-80
2024/01/17 03:39:52;;;;;;;0.00;0.00;;;;;;;;;;4874495;29;20049;-80
2024/01/17 03:42:18;;;;;;;0.10;0.05;;;;;;;;;;4870075;29;20120;-79
2024/01/17 03:44:44;;;;;;;0.00;0.00;;;;;;;;;;4872341;29;20162;-79
2024/01/17 03:47:10;;;;;;;0.05;0.00;;;;;;;;;;4863133;29;20056;-79
2024/01/17 03:49:37;;;;;;;5.22;0.10;;;;;;;;;;4869740;29;20046;-79
2024/01/17 03:52:03;;;;;;;0.10;0.10;;;;;;;;;;4866921;29;20042;-79
2024/01/17 03:54:29;;;;;;;1.67;0.20;;;;;;;;;;4877785;29;20089;-79
2024/01/17 03:56:55;;;;;;;2.28;0.10;;;;;;;;;;4860556;29;20499;-80
2024/01/17 03:59:21;;;;;;;0.20;0.17;;;;;;;;;;4866724;29;20066;-79
2024/01/17 04:01:47;;;;;;;0.88;0.32;;;;;;;;;;4866089;29;20049;-80
2024/01/17 04:04:13;;;;;;;1.23;0.28;;;;;;;;;;4865400;29;20049;-80
2024/01/17 04:06:40;;;;;;;1.55;0.30;;;;;;;;;;4871368;29;20064;-80
2024/01/17 04:09:07;;;;;;;0.17;0.10;;;;;;;;;;4871955;29;20037;-80
2024/01/17 04:11:33;;;;;;;0.60;0.20;;;;;;;;;;4875639;29;20053;-80
2024/01/17 04:14:00;;;;;;;0.43;0.25;;;;;;;;;;4861093;29;20112;-80
2024/01/17 04:16:26;;;;;;;1.15;0.80;;;;;;;;;;4868998;29;20046;-80
2024/01/17 04:18:52;;;;;;;0.43;0.13;;;;;;;;;;4878115;29;20101;-80
2024/01/17 04:21:22;;;;;;;0.75;0.10;;;;;;;;;;4870911;29;20608;-80
2024/01/17 04:23:49;;;;;;;1.02;0.60;;;;;;;;;;4863658;29;20049;-80
2024/01/17 04:26:25;;;;;;;1.70;0.65;;;;;;;;;;4861342;29;20069;-80
2024/01/17 04:28:51;;;;;;;0.98;0.40;;;;;;;;;;4861991;29;20053;-80
2024/01/17 04:31:24;;;;;;;0.10;0.03;;;;;;;;;;4842588;29;20379;-80
2024/01/17 04:33:50;;;;;;;10.80;5.72;;;;;;;;;;4875710;29;20380;-80
2024/01/17 04:36:17;;;;;;;15.20;8.90;;;;;;;;;;4873372;29;20714;-80
2024/01/17 04:38:43;;;;;;;10.10;2.58;;;;;;;;;;4873957;29;20055;-80
2024/01/17 04:41:10;;;;;;;1.40;0.93;;;;;;;;;;4870070;29;20429;-80
2024/01/17 04:43:36;;;;;;;0.93;0.50;;;;;;;;;;4869913;29;20054;-80
2024/01/17 04:46:02;;;;;;;3.25;1.42;;;;;;;;;;4866412;29;20056;-80
2024/01/17 04:48:28;;;;;;;1.58;0.65;;;;;;;;;;4870921;29;20037;-80
2024/01/17 04:50:58;;;;;;;0.25;0.20;;;;;;;;;;4874552;29;20622;-80
2024/01/17 04:53:25;;;;;;;1.10;0.60;;;;;;;;;;4860698;29;20042;-80
2024/01/17 04:55:51;;;;;;;1.60;0.45;;;;;;;;;;4867229;29;20052;-80
2024/01/17 04:58:17;;;;;;;0.45;0.32;;;;;;;;;;4870819;29;20053;-79
2024/01/17 05:00:47;;;;;;;0.88;0.45;;;;;;;;;;4865161;29;20088;-80
2024/01/17 05:03:13;;;;;;;0.25;0.10;;;;;;;;;;4871538;29;20052;-79
2024/01/17 05:05:43;;;;;;;0.47;0.35;;;;;;;;;;4874748;29;20057;-79
2024/01/17 05:08:09;;;;;;;0.85;0.17;;;;;;;;;;4871377;29;20127;-80
2024/01/17 05:10:35;;;;;;;;;;;;;;;;;;4874546;29;20116;-80
2024/01/17 05:13:01;;;;;;;0.57;0.20;;;;;;;;;;4877080;29;20022;-79
2024/01/17 05:15:27;;;;;;;3.03;0.52;;;;;;;;;;4851383;29;20038;-79
2024/01/17 05:17:54;;;;;;;0.52;0.20;;;;;;;;;;4876328;29;20057;-79
2024/01/17 05:20:20;;;;;;;1.15;0.20;;;;;;;;;;4872011;29;20069;-79
2024/01/17 05:22:46;;;;;;;0.85;0.15;;;;;;;;;;4860799;29;20080;-79
2024/01/17 05:25:13;;;;;;;0.28;0.10;;;;;;;;;;4865281;29;20041;-80
2024/01/17 05:27:39;;;;;;;0.43;0.30;;;;;;;;;;4859624;29;20160;-80
2024/01/17 05:30:05;;;;;;;;;;;;;;;;;;4873984;29;20112;-79
2024/01/17 05:32:31;;;;;;;2.25;0.60;;;;;;;;;;4870890;29;19951;-80
2024/01/17 05:34:57;;;;;;;7.63;0.55;;;;;;;;;;4868565;29;20473;-79
2024/01/17 05:37:23;;;;;;;0.17;0.10;;;;;;;;;;4873064;29;20045;-80
2024/01/17 05:39:49;;;;;;;0.20;0.20;;;;;;;;;;4855259;29;20389;-79
2024/01/17 05:42:15;;;;;;;0.75;0.35;;;;;;;;;;4862954;29;20061;-80
2024/01/17 05:44:41;;;;;;;1.17;0.40;;;;;;;;;;4867591;29;20049;-79
2024/01/17 05:47:07;;;;;;;3.22;0.82;;;;;;;;;;4872118;29;20041;-79
2024/01/17 05:49:33;;;;;;;0.38;0.25;;;;;;;;;;4871273;29;20116;-79
2024/01/17 05:51:59;;;;;;;0.88;0.60;;;;;;;;;;4859917;29;20046;-79
2024/01/17 05:54:25;;;;;;;1.08;0.65;;;;;;;;;;4861403;29;20723;-80
2024/01/17 05:56:51;;;;;;;1.52;0.40;;;;;;;;;;4853501;29;20041;-80
2024/01/17 05:59:17;;;;;;;;;;;;;;;;;;4842082;29;20101;-79
2024/01/17 06:01:43;;;;;;;0.47;0.35;;;;;;;;;;4866380;29;20015;-80
2024/01/17 06:04:09;;;;;;;1.25;0.50;;;;;;;;;;4858352;29;20478;-80
2024/01/17 06:06:36;;;;;;;0.90;0.57;;;;;;;;;;4868909;29;20052;-79
2024/01/17 06:09:02;;;;;;;0.40;0.32;;;;;;;;;;4864328;29;20042;-80
2024/01/17 06:11:27;;;;;;;0.55;0.40;;;;;;;;;;4867031;29;20047;-79
2024/01/17 06:13:54;;;;;;;0.00;0.00;;;;;;;;;;4866917;29;20500;-79
2024/01/17 06:16:20;;;;;;;0.03;0.00;;;;;;;;;;4872687;29;20120;-79
2024/01/17 06:18:46;;;;;;;0.98;0.05;;;;;;;;;;4853414;29;20136;-79
2024/01/17 06:21:12;;;;;;;0.25;0.20;;;;;;;;;;4869712;29;20128;-78
2024/01/17 06:23:38;;;;;;;0.22;0.13;;;;;;;;;;4872973;29;20152;-80
2024/01/17 06:26:04;;;;;;;0.35;0.20;;;;;;;;;;4875651;29;20053;-79
2024/01/17 06:28:33;;;;;;;0.52;0.50;;;;;;;;;;4871918;29;20063;-81
2024/01/17 06:31:00;;;;;;;1.88;0.30;;;;;;;;;;4875969;29;20048;-80
2024/01/17 06:33:26;;;;;;;0.25;0.25;;;;;;;;;;4870367;29;20044;-79
2024/01/17 06:35:52;;;;;;;0.03;0.00;;;;;;;;;;4873946;29;20472;-79
2024/01/17 06:38:18;;;;;;;0.30;0.20;;;;;;;;;;4858786;29;20078;-79
2024/01/17 06:40:44;;;;;;;0.63;0.20;;;;;;;;;;4863523;29;20507;-78
2024/01/17 06:43:10;;;;;;;0.08;0.08;;;;;;;;;;4868744;29;20085;-79
2024/01/17 06:45:36;;;;;;;0.50;0.28;;;;;;;;;;4876080;29;20037;-79
2024/01/17 06:48:03;;;;;;;0.00;0.00;;;;;;;;;;4860183;29;20442;-79
2024/01/17 06:50:29;;;;;;;0.85;0.10;;;;;;;;;;4872197;29;20092;-79
2024/01/17 06:52:55;;;;;;;1.40;0.68;;;;;;;;;;4865876;29;20037;-79
2024/01/17 06:55:21;;;;;;;0.70;0.20;;;;;;;;;;4854676;29;20049;-80
2024/01/17 06:57:47;;;;;;;0.30;0.20;;;;;;;;;;4870787;29;20548;-79
2024/01/17 07:00:13;;;;;;;0.28;0.20;;;;;;;;;;4873936;29;20079;-79
2024/01/17 07:02:40;;;;;;;0.17;0.00;;;;;;;;;;4871045;29;20053;-79
2024/01/17 07:05:06;;;;;;;0.98;0.25;;;;;;;;;;4865864;29;20495;-79
2024/01/17 07:07:32;;;;;;;1.02;0.20;;;;;;;;;;4853729;29;20053;-79
2024/01/17 07:09:58;;;;;;;1.13;0.20;;;;;;;;;;4851928;29;20391;-79
2024/01/17 07:12:24;;;;;;;0.32;0.25;;;;;;;;;;4863154;29;20046;-78
2024/01/17 07:14:54;;;;;;;0.60;0.20;;;;;;;;;;4861723;29;20098;-79
2024/01/17 07:17:20;;;;;;;2.67;1.02;;;;;;;;;;4864030;29;20047;-79
2024/01/17 07:19:46;;;;;;;0.10;0.00;;;;;;;;;;4859898;29;20750;-78
2024/01/17 07:22:13;;;;;;;1.45;0.47;;;;;;;;;;4868501;29;20073;-78
2024/01/17 07:24:39;;;;;;;0.32;0.10;;;;;;;;;;4871855;29;20052;-79
2024/01/17 07:27:05;;;;;;;0.20;0.00;;;;;;;;;;4868852;29;20049;-78
2024/01/17 07:29:31;;;;;;;0.65;0.45;;;;;;;;;;4859963;29;20052;-79
2024/01/17 07:31:57;;;;;;;2.88;0.93;;;;;;;;;;4873561;29;20767;-78
2024/01/17 07:34:23;;;;;;;4.18;0.28;;;;;;;;;;4873670;29;20091;-79
2024/01/17 07:36:51;;;;;;;2.05;1.08;;;;;;;;;;4872274;29;20079;-79
2024/01/17 07:39:18;;;;;;;0.98;0.25;;;;;;;;;;4873587;29;20041;-79
2024/01/17 07:41:44;;;;;;;3.38;1.60;;;;;;;;;;4868954;29;20468;-79
2024/01/17 07:44:10;;;;;;;5.20;2.28;;;;;;;;;;4875242;29;20041;-79
2024/01/17 07:46:38;;;;;;;4.07;2.30;;;;;;;;;;4870743;29;20056;-79
2024/01/17 07:49:04;;;;;;;1.83;1.35;;;;;;;;;;4868086;29;20381;-79
2024/01/17 07:51:30;;;;;;;2.00;1.35;;;;;;;;;;4878663;29;20043;-79
2024/01/17 07:53:59;;;;;;;1.73;0.98;;;;;;;;;;4869978;29;20053;-79
2024/01/17 07:56:25;;;;;;;0.40;0.32;;;;;;;;;;4877517;29;20053;-79
2024/01/17 07:58:51;;;;;;;5.90;1.42;;;;;;;;;;4868633;29;20481;-79
2024/01/17 08:01:17;;;;;;;1.08;0.75;;;;;;;;;;4873855;29;20129;-80
2024/01/17 08:03:43;;;;;;;0.63;0.40;;;;;;;;;;4867352;29;20053;-79
2024/01/17 08:06:09;;;;;;;1.05;0.73;;;;;;;;;;4872828;29;20057;-80
2024/01/17 08:08:36;;;;;;;1.80;1.17;;;;;;;;;;4864777;29;20045;-79
2024/01/17 08:11:02;;;;;;;2.33;0.60;;;;;;;;;;4878281;29;20476;-79
2024/01/17 08:13:28;;;;;;;0.85;0.73;;;;;;;;;;4877232;29;20907;-79
2024/01/17 08:15:55;;;;;;;2.05;0.77;;;;;;;;;;4868203;29;20052;-79
2024/01/17 08:18:21;;;;;;;1.65;0.98;;;;;;;;;;4877815;29;20041;-80
2024/01/17 08:20:47;;;;;;;6.13;1.52;;;;;;;;;;4876821;29;20484;-79
2024/01/17 08:23:13;;;;;;;3.90;1.55;;;;;;;;;;4877384;29;20053;-79
2024/01/17 08:25:39;;;;;;;3.03;1.48;;;;;;;;;;4863766;29;20540;-79
2024/01/17 08:28:05;;;;;;;3.28;1.08;;;;;;;;;;4868705;29;20042;-79
2024/01/17 08:30:31;;;;;;;0.13;0.13;;;;;;;;;;4866530;29;20434;-79
2024/01/17 08:32:57;;;;;;;0.30;0.30;;;;;;;;;;4871007;29;20037;-79
2024/01/17 08:35:23;;;;;;;1.23;0.65;;;;;;;;;;4870963;29;20072;-79
2024/01/17 08:37:49;;;;;;;0.55;0.30;;;;;;;;;;4868800;29;20088;-79
2024/01/17 08:40:16;;;;;;;2.13;1.05;;;;;;;;;;4874636;29;20089;-79
2024/01/17 08:42:44;;;;;;;12.02;4.32;;;;;;;;;;4865217;29;20057;-79
2024/01/17 08:45:10;;;;;;;6.95;2.83;;;;;;;;;;4876022;29;20033;-79
2024/01/17 08:47:36;;;;;;;6.00;2.90;;;;;;;;;;4865269;29;20093;-80
2024/01/17 08:50:03;;;;;;;4.22;1.90;;;;;;;;;;4872885;29;20033;-80
2024/01/17 08:52:29;;;;;;;3.10;1.58;;;;;;;;;;4859307;29;20076;-80
2024/01/17 08:54:55;;;;;;;3.67;1.58;;;;;;;;;;4872249;29;20089;-80
2024/01/17 08:57:21;;;;;;;1.35;0.80;;;;;;;;;;4868607;29;20061;-80
2024/01/17 08:59:47;;;;;;;2.50;1.33;;;;;;;;;;4866787;29;20041;-80
2024/01/17 09:02:13;;;;;;;1.20;0.43;;;;;;;;;;4866440;29;20052;-80
2024/01/17 09:04:40;;;;;;;2.88;0.98;;;;;;;;;;4864071;29;20055;-79
2024/01/17 09:07:08;;;;;;;1.52;0.68;;;;;;;;;;4874962;29;20788;-79
2024/01/17 09:09:34;;;;;;;4.90;2.42;;;;;;;;;;4866592;29;20042;-79
2024/01/17 09:12:00;;;;;;;5.85;0.70;;;;;;;;;;4873593;29;20049;-79
2024/01/17 09:14:26;;;;;;;1.85;0.70;;;;;;;;;;4864952;29;20128;-79
2024/01/17 09:16:52;;;;;;;1.48;0.80;;;;;;;;;;4870511;29;20048;-79
2024/01/17 09:19:20;;;;;;;1.67;0.45;;;;;;;;;;4869263;29;20144;-79
2024/01/17 09:21:46;;;;;;;2.20;1.48;;;;;;;;;;4861222;29;20052;-79
2024/01/17 09:24:12;;;;;;;3.33;0.95;;;;;;;;;;4867329;29;20511;-79
2024/01/17 09:26:38;;;;;;;1.48;0.80;;;;;;;;;;4865572;29;20068;-79
2024/01/17 09:29:04;;;;;;;2.35;1.20;;;;;;;;;;4858237;29;20133;-78
2024/01/17 09:31:31;;;;;;;3.22;1.02;;;;;;;;;;4865345;29;20535;-79
2024/01/17 09:33:57;;;;;;;2.45;1.15;;;;;;;;;;4869463;29;20050;-79
2024/01/17 09:36:22;;;;;;;1.02;0.40;;;;;;;;;;4863347;29;20379;-79
2024/01/17 09:38:49;;;;;;;1.90;0.68;;;;;;;;;;4854384;29;20073;-79
2024/01/17 09:41:15;;;;;;;1.58;1.42;;;;;;;;;;4868707;29;20045;-79
2024/01/17 09:43:41;;;;;;;2.40;1.45;;;;;;;;;;4867980;29;20053;-80
2024/01/17 09:46:12;;;;;;;5.93;2.88;;;;;;;;;;4874125;29;20037;-79
2024/01/17 09:48:39;;;;;;;11.10;5.68;;;;;;;;;;4872403;29;20135;-79
2024/01/17 09:51:05;;;;;;;4.43;2.15;;;;;;;;;;4871392;29;20074;-79
2024/01/17 09:53:32;;;;;;;4.85;1.65;;;;;;;;;;4873096;29;20057;-79
2024/01/17 09:56:01;;;;;;;2.25;1.15;;;;;;;;;;4875575;29;20040;-80
2024/01/17 09:58:30;;;;;;;1.25;0.95;;;;;;;;;;4866029;29;20048;-80
2024/01/17 10:00:56;;;;;;;3.50;0.55;;;;;;;;;;4876313;29;20041;-80
2024/01/17 10:03:23;;;;;;;13.85;1.33;;;;;;;;;;4867869;29;20094;-79
2024/01/17 10:05:50;;;;;;;1.85;0.90;;;;;;;;;;4876407;29;20160;-79
2024/01/17 10:08:18;;;;;;;2.78;0.70;;;;;;;;;;4868820;29;20048;-80
2024/01/17 10:10:44;;;;;;;2.13;1.30;;;;;;;;;;4875821;29;20045;-79
2024/01/17 10:13:11;;;;;;;1.48;1.02;;;;;;;;;;4874313;29;20063;-79
2024/01/17 10:15:46;;;;;;;1.00;0.30;;;;;;;;;;4870668;29;20463;-79
2024/01/17 10:18:12;;;;;;;0.10;0.10;;;;;;;;;;4867652;29;20051;-79
2024/01/17 10:20:38;;;;;;;2.42;1.40;;;;;;;;;;4868961;29;20041;-80
2024/01/17 10:23:06;;;;;;;5.47;1.75;;;;;;;;;;4873062;29;20057;-80
2024/01/17 10:25:42;;;;;;;9.85;2.20;;;;;;;;;;4866857;29;20041;-80
2024/01/17 10:28:08;;;;;;;3.55;1.73;;;;;;;;;;4870206;29;20041;-80
2024/01/17 10:30:35;;;;;;;3.35;1.65;;;;;;;;;;4875096;29;20041;-80
2024/01/17 10:33:02;;;;;;;4.38;1.85;;;;;;;;;;4867662;29;20543;-80
2024/01/17 10:35:28;;;;;;;2.85;1.95;;;;;;;;;;4869890;29;20041;-80
2024/01/17 10:37:54;;;;;;;3.92;1.75;;;;;;;;;;4868277;29;20156;-80
2024/01/17 10:40:20;;;;;;;2.50;1.23;;;;;;;;;;4865819;29;20121;-79
2024/01/17 10:42:46;;;;;;;1.38;0.80;;;;;;;;;;4872988;29;20099;-80
2024/01/17 10:45:23;;;;;;;2.63;1.50;;;;;;;;;;4863392;29;20499;-82
2024/01/17 10:47:49;;;;;;;1.45;0.77;;;;;;;;;;4864472;29;20045;-82
2024/01/17 10:50:20;;;;;;;2.58;1.10;;;;;;;;;;4852043;29;20033;-80
2024/01/17 10:52:47;;;;;;;9.20;2.00;;;;;;;;;;4862233;29;20124;-81
2024/01/17 10:55:15;;;;;;;3.72;2.55;;;;;;;;;;4873736;29;20067;-81
2024/01/17 10:57:44;;;;;;;1.98;1.13;;;;;;;;;;4845424;29;20057;-81
2024/01/17 11:00:14;;;;;;;2.70;1.58;;;;;;;;;;4860657;29;20041;-81
2024/01/17 11:02:41;;;;;;;2.03;1.23;;;;;;;;;;4865181;29;20082;-85
2024/01/17 11:05:11;;;;;;;4.75;3.03;;;;;;;;;;4853254;29;20603;-80
2024/01/17 11:07:37;;;;;;;4.25;2.15;;;;;;;;;;4871992;29;20124;-80
2024/01/17 11:10:05;;;;;;;4.88;1.88;;;;;;;;;;4878906;29;20037;-80
2024/01/17 11:12:38;;;;;;;2.45;1.25;;;;;;;;;;4879646;29;20535;-81
2024/01/17 11:15:05;;;;;;;3.40;1.50;;;;;;;;;;4873380;29;20757;-80
2024/01/17 11:17:35;;;;;;;16.13;4.05;;;;;;;;;;4870830;29;20412;-81
2024/01/17 11:20:03;;;;;;;2.60;1.73;;;;;;;;;;4878621;29;20045;-80
2024/01/17 11:22:30;;;;;;;5.80;2.28;;;;;;;;;;4865722;29;20140;-80
2024/01/17 11:25:10;;;;;;;3.38;1.67;;;;;;;;;;4874340;29;20570;-81
2024/01/17 11:27:42;;;;;;;4.18;1.73;;;;;;;;;;4884987;29;20044;-82
2024/01/17 11:30:11;;;;;;;2.60;1.60;;;;;;;;;;4861652;29;20116;-81
2024/01/17 11:32:56;;;;;;;3.63;1.80;;;;;;;;;;4880085;29;20055;-80
2024/01/17 11:35:43;;;;;;;3.25;1.50;;;;;;;;;;4871418;29;20096;-81
2024/01/17 11:38:13;;;;;;;5.15;2.58;;;;;;;;;;4877974;29;20052;-80
2024/01/17 11:40:40;;;;;;;3.70;2.30;;;;;;;;;;4869120;29;20116;-80
2024/01/17 11:43:07;;;;;;;4.72;2.42;;;;;;;;;;4875651;29;20060;-79
2024/01/17 11:45:33;;;;;;;3.58;2.22;;;;;;;;;;4869619;29;20109;-82
2024/01/17 11:48:12;;;;;;;6.60;2.53;;;;;;;;;;4855948;29;20045;-80
2024/01/17 11:50:38;;;;;;;7.25;2.33;;;;;;;;;;4874709;29;20045;-80
2024/01/17 11:53:05;;;;;;;3.50;1.52;;;;;;;;;;4872892;29;20048;-79
2024/01/17 11:55:31;;;;;;;2.55;1.15;;;;;;;;;;4872684;29;20037;-82
2024/01/17 11:57:57;;;;;;;5.05;1.63;;;;;;;;;;4850041;29;20042;-79
2024/01/17 12:00:25;;;;;;;2.90;1.30;;;;;;;;;;4852632;29;20052;-79
2024/01/17 12:02:51;;;;;;;6.20;1.67;;;;;;;;;;4870727;29;20106;-79
2024/01/17 12:05:17;;;;;;;5.55;1.50;;;;;;;;;;4877747;29;20480;-79
2024/01/17 12:07:49;;;;;;;4.30;1.67;;;;;;;;;;4872833;29;20576;-79
2024/01/17 12:10:15;;;;;;;2.03;0.98;;;;;;;;;;4876070;29;20033;-80
2024/01/17 12:12:44;;;;;;;14.63;2.70;;;;;;;;;;4879066;29;20116;-80
2024/01/17 12:15:10;;;;;;;1.45;1.02;;;;;;;;;;4861753;29;20040;-80
2024/01/17 12:17:38;;;;;;;4.90;1.73;;;;;;;;;;4867516;29;20045;-80
2024/01/17 12:20:06;;;;;;;3.53;2.17;;;;;;;;;;4858794;29;20045;-80
2024/01/17 12:22:32;;;;;;;3.85;2.45;;;;;;;;;;4863369;29;20495;-80
2024/01/17 12:24:59;;;;;;;5.40;2.00;;;;;;;;;;4871163;29;20049;-79
2024/01/17 12:27:26;;;;;;;4.03;2.28;;;;;;;;;;4868840;29;20032;-79
2024/01/17 12:29:54;;;;;;;7.00;2.00;;;;;;;;;;4846605;29;20385;-80
2024/01/17 12:32:23;;;;;;;4.88;1.38;;;;;;;;;;4869414;29;20060;-79
2024/01/17 12:34:50;;;;;;;4.30;0.70;;;;;;;;;;4869994;29;20049;-80
2024/01/17 12:37:16;;;;;;;8.85;3.58;;;;;;;;;;4874961;29;20037;-79
2024/01/17 12:39:42;;;;;;;4.30;1.75;;;;;;;;;;4872945;29;20065;-79
2024/01/17 12:42:08;;;;;;;5.30;1.45;;;;;;;;;;4864383;29;20417;-80
2024/01/17 12:44:34;;;;;;;3.20;1.42;;;;;;;;;;4873249;29;20092;-79
2024/01/17 12:47:01;;;;;;;1.10;0.90;;;;;;;;;;4871356;29;20161;-79
2024/01/17 12:49:30;;;;;;;2.95;2.15;;;;;;;;;;4867362;29;20479;-79
2024/01/17 12:51:56;;;;;;;2.97;1.48;;;;;;;;;;4862498;29;20042;-79
2024/01/17 12:54:23;;;;;;;1.50;0.70;;;;;;;;;;4870584;29;20049;-79
2024/01/17 12:56:51;;;;;;;1.00;0.82;;;;;;;;;;4859162;29;20076;-78
2024/01/17 12:59:17;;;;;;;1.75;0.93;;;;;;;;;;4868817;29;20053;-78
2024/01/17 13:01:43;;;;;;;3.40;1.10;;;;;;;;;;4859721;29;20495;-78
2024/01/17 13:04:09;;;;;;;2.20;1.38;;;;;;;;;;4865912;29;20049;-80
2024/01/17 13:06:48;;;;;;;3.20;1.80;;;;;;;;;;4861567;29;20504;-81
2024/01/17 13:09:15;;;;;;;19.13;2.17;;;;;;;;;;4859082;29;20045;-81
2024/01/17 13:11:45;;;;;;;3.97;2.10;;;;;;;;;;4872185;29;20475;-83
2024/01/17 13:14:15;;;;;;;2.28;1.15;;;;;;;;;;4864563;29;20054;-81
2024/01/17 13:16:41;;;;;;;3.78;1.67;;;;;;;;;;4862531;29;20046;-81
2024/01/17 13:19:10;;;;;;;3.28;1.25;;;;;;;;;;4873680;29;20049;-79
2024/01/17 13:21:37;;;;;;;5.18;1.77;;;;;;;;;;4876908;29;20041;-79
2024/01/17 13:24:04;;;;;;;4.70;1.20;;;;;;;;;;4876886;29;20045;-80
2024/01/17 13:26:30;;;;;;;4.20;1.83;;;;;;;;;;4874659;29;20692;-81
2024/01/17 13:28:56;;;;;;;8.10;2.03;;;;;;;;;;4860332;29;20524;-81
2024/01/17 13:31:23;;;;;;;2.72;1.75;;;;;;;;;;4870380;29;20484;-81
2024/01/17 13:33:51;;;;;;;5.63;2.83;;;;;;;;;;4866880;29;20111;-81
2024/01/17 13:36:18;;;;;;;6.25;1.85;;;;;;;;;;4864228;29;20041;-82
2024/01/17 13:38:43;;;;;;;6.55;3.80;;;;;;;;;;4875970;29;20088;-82
2024/01/17 13:41:09;;;;;;;3.50;2.53;;;;;;;;;;4869813;29;20053;-82
2024/01/17 13:43:35;;;;;;;7.88;5.57;;;;;;;;;;4874969;29;20052;-81
2024/01/17 13:46:01;;;;;;;10.68;4.55;;;;;;;;;;4876321;29;20037;-81
2024/01/17 13:48:27;;;;;;;3.65;2.58;;;;;;;;;;4866140;29;20068;-81
2024/01/17 13:50:54;;;;;;;4.82;2.03;;;;;;;;;;4862768;29;20476;-82
2024/01/17 13:53:32;;;;;;;7.68;3.85;;;;;;;;;;4863947;29;20061;-81
2024/01/17 13:55:58;;;;;;;8.68;3.90;;;;;;;;;;4850304;29;20124;-81
2024/01/17 13:58:25;;;;;;;5.80;2.60;;;;;;;;;;4876184;29;20049;-81
2024/01/17 14:00:55;;;;;;;3.20;1.88;;;;;;;;;;4872978;29;20088;-81
2024/01/17 14:03:21;;;;;;;2.58;1.48;;;;;;;;;;4855829;29;20518;-81
2024/01/17 14:05:48;;;;;;;2.38;1.23;;;;;;;;;;4859592;29;20057;-78
2024/01/17 14:08:14;;;;;;;1.67;0.90;;;;;;;;;;4866963;29;20098;-80
2024/01/17 14:10:40;;;;;;;0.90;0.73;;;;;;;;;;4871646;29;20791;-80
2024/01/17 14:13:06;;;;;;;7.97;1.85;;;;;;;;;;4872855;29;20077;-80
2024/01/17 14:15:32;;;;;;;3.00;2.28;;;;;;;;;;4862826;29;20068;-81
2024/01/17 14:17:59;;;;;;;5.68;2.97;;;;;;;;;;4865418;29;20049;-81
2024/01/17 14:20:27;;;;;;;9.82;3.78;;;;;;;;;;4868942;29;20060;-80
2024/01/17 14:22:55;;;;;;;1.60;0.77;;;;;;;;;;4864875;29;20049;-82
2024/01/17 14:25:21;;;;;;;2.70;1.50;;;;;;;;;;4872412;29;20480;-81
2024/01/17 14:27:47;;;;;;;4.60;2.40;;;;;;;;;;4871015;29;20053;-79
2024/01/17 14:30:13;;;;;;;2.78;1.27;;;;;;;;;;4873529;29;20037;-79
2024/01/17 14:32:40;;;;;;;4.97;2.38;;;;;;;;;;4866804;29;20076;-81
2024/01/17 14:35:07;;;;;;;6.32;2.88;;;;;;;;;;4859415;29;20381;-79
2024/01/17 14:37:38;;;;;;;3.95;2.17;;;;;;;;;;4869678;29;20045;-82
2024/01/17 14:40:05;;;;;;;4.97;2.15;;;;;;;;;;4860779;29;20160;-82